Time;durP1;ratioP1;P1;durP2;ratioP2;P2;SDS_P1;SDS_P2;PMS_P1;PMS_P2;Temp;Humidity;BMP_temperature;BMP_pressure;BME280_temperature;BME280_humidity;BME280_pressure;Samples;Min_cycle;Max_cycle;Signal;HPM_P1;HPM_P2
2024/01/10 00:01:37;;;;;;;7.95;4.68;;;;;;;-3.53;58.41;103001.28;5102398;27;20047;-67
2024/01/10 00:04:26;;;;;;;7.35;4.25;;;;;;;-3.49;58.47;102995.59;5088736;28;20082;-68
2024/01/10 00:07:16;;;;;;;8.73;4.50;;;;;;;-3.37;58.74;102980.41;5088556;28;20039;-69
2024/01/10 00:10:08;;;;;;;7.93;4.22;;;;;;;-3.36;58.40;102981.28;5090158;28;20047;-69
2024/01/10 00:12:56;;;;;;;8.52;4.78;;;;;;;-3.52;58.43;102981.66;5108895;28;20453;-68
2024/01/10 00:15:44;;;;;;;8.07;4.50;;;;;;;-3.63;58.96;102990.50;5098432;28;20540;-68
2024/01/10 00:18:33;;;;;;;10.07;4.68;;;;;;;-3.61;58.95;102985.88;5094274;28;20042;-68
2024/01/10 00:21:22;;;;;;;10.40;5.07;;;;;;;-3.50;58.72;102977.88;5095994;28;20036;-68
2024/01/10 00:24:10;;;;;;;7.38;4.47;;;;;;;-3.51;59.19;102973.53;5116322;28;20044;-69
2024/01/10 00:26:59;;;;;;;7.35;4.32;;;;;;;-3.48;59.12;102973.28;5104395;28;20036;-68
2024/01/10 00:29:47;;;;;;;9.15;4.32;;;;;;;-3.61;58.55;102967.22;5111388;28;20042;-69
2024/01/10 00:32:35;;;;;;;8.77;4.75;;;;;;;-3.59;60.04;102970.63;5082522;28;20111;-68
2024/01/10 00:35:23;;;;;;;7.93;4.63;;;;;;;-3.41;58.87;102972.81;5131675;28;20441;-68
2024/01/10 00:38:11;;;;;;;9.80;4.85;;;;;;;-3.52;58.92;102969.16;5110039;28;20043;-69
2024/01/10 00:40:59;;;;;;;8.18;4.72;;;;;;;-3.57;59.10;102963.34;5095760;28;20502;-67
2024/01/10 00:43:47;;;;;;;7.53;4.28;;;;;;;-3.59;59.01;102970.63;5116085;28;20096;-68
2024/01/10 00:46:36;;;;;;;11.05;5.28;;;;;;;-3.52;59.63;102969.16;5116718;28;20050;-68
2024/01/10 00:49:24;;;;;;;8.02;4.78;;;;;;;-3.64;58.50;102972.81;5104455;27;20051;-70
2024/01/10 00:52:13;;;;;;;6.13;3.85;;;;;;;-3.63;59.99;102963.88;5101836;28;20039;-69
2024/01/10 00:55:09;;;;;;;7.97;4.57;;;;;;;-3.72;59.76;102960.09;5089554;28;20043;-68
2024/01/10 00:57:57;;;;;;;;;;;;;;;-3.71;59.61;102960.94;5088576;28;20066;-68
2024/01/10 01:00:48;;;;;;;9.05;4.97;;;;;;;-3.66;59.83;102948.09;5113363;27;19920;-68
2024/01/10 01:03:37;;;;;;;9.55;4.78;;;;;;;-3.71;60.21;102947.63;5080249;28;20056;-68
2024/01/10 01:06:26;;;;;;;9.32;5.32;;;;;;;-3.67;59.94;102952.59;5094380;28;20047;-67
2024/01/10 01:09:15;;;;;;;9.40;5.20;;;;;;;-3.65;60.85;102949.81;5110249;27;20042;-69
2024/01/10 01:12:03;;;;;;;9.50;5.57;;;;;;;-3.60;59.11;102946.78;5114901;27;20043;-68
2024/01/10 01:14:51;;;;;;;10.10;5.38;;;;;;;-3.66;59.27;102943.63;5113487;28;20046;-69
2024/01/10 01:17:39;;;;;;;9.65;5.50;;;;;;;-3.71;60.04;102940.47;5114316;28;20088;-68
2024/01/10 01:20:27;;;;;;;10.23;5.15;;;;;;;-3.72;60.88;102949.44;5114975;27;20050;-67
2024/01/10 01:23:18;;;;;;;9.70;4.85;;;;;;;-3.68;60.47;102950.03;5113132;28;20039;-68
2024/01/10 01:26:23;;;;;;;9.68;5.63;;;;;;;-3.74;60.72;102953.19;5113662;28;20036;-68
2024/01/10 01:29:11;;;;;;;8.10;4.90;;;;;;;-3.77;60.58;102956.13;5112958;28;20027;-68
2024/01/10 01:31:59;;;;;;;10.27;4.93;;;;;;;-3.88;61.46;102952.44;5118689;27;20047;-68
2024/01/10 01:34:47;;;;;;;7.78;4.38;;;;;;;-3.87;61.52;102954.16;5117887;27;20036;-68
2024/01/10 01:37:35;;;;;;;8.73;5.00;;;;;;;-3.80;62.04;102956.34;5092278;28;20086;-67
2024/01/10 01:40:23;;;;;;;8.27;4.47;;;;;;;-3.87;61.99;102951.50;5079976;28;20396;-69
2024/01/10 01:43:24;;;;;;;9.02;4.80;;;;;;;-3.84;62.20;102945.09;5127931;27;20172;-68
2024/01/10 01:46:12;;;;;;;8.73;4.90;;;;;;;-3.83;62.08;102945.94;5093052;27;20127;-68
2024/01/10 01:49:01;;;;;;;8.20;4.50;;;;;;;-3.82;62.19;102939.63;5098517;27;20072;-68
2024/01/10 01:51:49;;;;;;;9.48;4.90;;;;;;;-3.95;63.25;102940.59;5133556;27;20043;-68
2024/01/10 01:54:37;;;;;;;8.85;5.00;;;;;;;-3.99;63.85;102941.81;5096241;28;20440;-67
2024/01/10 01:57:25;;;;;;;10.35;5.75;;;;;;;-4.02;63.28;102935.88;5098681;28;20432;-68
2024/01/10 02:00:14;;;;;;;10.13;5.15;;;;;;;-3.93;63.02;102930.66;5113762;28;20093;-68
2024/01/10 02:03:02;;;;;;;11.85;4.75;;;;;;;-3.95;63.61;102935.25;5083522;27;20028;-68
2024/01/10 02:05:50;;;;;;;10.10;5.47;;;;;;;-3.87;63.34;102935.53;5097936;28;20056;-68
2024/01/10 02:08:38;;;;;;;9.48;5.05;;;;;;;-3.88;63.57;102936.47;5110613;27;20050;-66
2024/01/10 02:11:26;;;;;;;12.18;5.07;;;;;;;-4.01;63.92;102933.09;5117702;27;20047;-67
2024/01/10 02:14:15;;;;;;;9.00;5.10;;;;;;;-4.06;64.10;102935.28;5092244;28;20061;-68
2024/01/10 02:17:03;;;;;;;7.75;4.50;;;;;;;-4.04;64.37;102932.47;5098343;27;20043;-69
2024/01/10 02:20:11;;;;;;;11.30;4.50;;;;;;;-3.92;64.78;102927.06;5110346;28;20032;-67
2024/01/10 02:23:00;;;;;;;10.13;4.85;;;;;;;-3.99;64.83;102932.97;5093009;28;20032;-68
2024/01/10 02:25:48;;;;;;;8.13;4.47;;;;;;;-4.00;64.03;102929.44;5093220;28;20050;-68
2024/01/10 02:28:36;;;;;;;9.00;4.72;;;;;;;-4.03;64.69;102935.03;5119303;27;20039;-67
2024/01/10 02:31:27;;;;;;;9.48;5.00;;;;;;;-4.02;65.25;102935.88;5113161;27;20430;-67
2024/01/10 02:34:15;;;;;;;9.55;4.75;;;;;;;-4.02;65.41;102936.72;5077630;28;20498;-67
2024/01/10 02:37:03;;;;;;;8.45;4.85;;;;;;;-4.10;65.30;102925.81;5092865;28;20044;-67
2024/01/10 02:39:51;;;;;;;9.48;4.55;;;;;;;-4.00;65.29;102929.44;5078924;28;20036;-68
2024/01/10 02:42:39;;;;;;;9.32;4.90;;;;;;;-3.92;64.90;102931.50;5078184;28;20043;-68
2024/01/10 02:45:27;;;;;;;8.27;4.78;;;;;;;-3.99;65.20;102935.63;5114165;28;20507;-68
2024/01/10 02:48:15;;;;;;;9.55;5.20;;;;;;;-4.05;65.80;102936.97;5108735;27;20035;-68
2024/01/10 02:51:04;;;;;;;9.55;4.90;;;;;;;-4.04;65.70;102938.66;5118009;28;20122;-68
2024/01/10 02:53:52;;;;;;;10.73;4.90;;;;;;;-3.96;64.95;102938.91;5113795;27;20040;-68
2024/01/10 02:56:40;;;;;;;8.63;5.10;;;;;;;-3.90;64.88;102935.75;5112518;28;20063;-68
2024/01/10 02:59:28;;;;;;;9.27;5.28;;;;;;;-3.92;64.69;102934.16;5113524;28;20377;-67
2024/01/10 03:02:16;;;;;;;7.78;4.50;;;;;;;-3.97;65.42;102926.56;5112796;28;20075;-68
2024/01/10 03:05:04;;;;;;;9.02;4.90;;;;;;;-4.03;65.56;102924.38;5077795;28;20476;-70
2024/01/10 03:07:52;;;;;;;7.70;4.55;;;;;;;-4.00;66.03;102918.81;5088264;28;20031;-67
2024/01/10 03:10:40;;;;;;;9.32;4.90;;;;;;;-3.95;65.21;102913.97;5114274;28;20124;-67
2024/01/10 03:13:28;;;;;;;8.32;5.40;;;;;;;-4.00;65.97;102913.47;5112550;28;20035;-67
2024/01/10 03:16:17;;;;;;;9.68;5.13;;;;;;;-3.98;64.94;102906.22;5098751;28;20095;-68
2024/01/10 03:19:05;;;;;;;9.27;5.57;;;;;;;-3.94;65.10;102901.53;5131189;28;20043;-69
2024/01/10 03:21:53;;;;;;;8.05;4.78;;;;;;;-3.92;66.31;102902.22;5098956;28;20042;-69
2024/01/10 03:24:41;;;;;;;10.45;5.82;;;;;;;-4.07;65.78;102901.63;5079835;28;20044;-69
2024/01/10 03:27:29;;;;;;;8.68;5.07;;;;;;;-4.11;65.73;102897.53;5097282;28;20099;-69
2024/01/10 03:30:18;;;;;;;9.25;5.32;;;;;;;-4.15;66.73;102894.25;5130175;28;20039;-70
2024/01/10 03:33:06;;;;;;;9.30;5.00;;;;;;;-4.09;66.84;102899.09;5120588;28;20160;-69
2024/01/10 03:35:54;;;;;;;10.02;4.90;;;;;;;-3.99;65.89;102893.88;5072866;28;20136;-69
2024/01/10 03:38:43;;;;;;;9.02;5.22;;;;;;;-4.11;66.99;102894.84;5118457;28;20410;-69
2024/01/10 03:41:31;;;;;;;8.70;4.72;;;;;;;-4.12;67.52;102895.81;5087121;28;20089;-70
2024/01/10 03:44:19;;;;;;;9.07;5.18;;;;;;;-4.15;67.60;102893.41;5068388;28;20142;-70
2024/01/10 03:47:07;;;;;;;9.57;5.55;;;;;;;-4.16;67.36;102889.88;5100728;28;20455;-70
2024/01/10 03:49:55;;;;;;;9.18;4.93;;;;;;;-4.20;68.31;102890.25;5112979;28;20404;-69
2024/01/10 03:52:44;;;;;;;7.60;4.90;;;;;;;-4.17;68.18;102879.34;5111885;28;20035;-68
2024/01/10 03:55:32;;;;;;;8.73;5.38;;;;;;;-4.14;68.11;102879.94;5096782;28;20035;-69
2024/01/10 03:58:21;;;;;;;12.60;6.40;;;;;;;-4.08;67.56;102883.97;5094282;28;20042;-68
2024/01/10 04:01:09;;;;;;;10.27;5.28;;;;;;;-4.02;67.71;102883.47;5074152;28;20131;-68
2024/01/10 04:03:57;;;;;;;10.38;5.03;;;;;;;-3.95;67.90;102884.66;5087392;27;20039;-68
2024/01/10 04:06:46;;;;;;;8.15;4.88;;;;;;;-4.00;67.71;102880.69;5112544;28;20185;-69
2024/01/10 04:09:34;;;;;;;8.38;5.05;;;;;;;-4.11;67.40;102878.88;5081746;27;20504;-69
2024/01/10 04:12:22;;;;;;;9.75;5.10;;;;;;;-4.19;68.69;102868.81;5079649;28;20119;-69
2024/01/10 04:15:10;;;;;;;9.57;5.05;;;;;;;-4.22;69.06;102863.75;5096411;28;20040;-68
2024/01/10 04:17:58;;;;;;;9.18;5.32;;;;;;;-4.25;70.04;102865.81;5101694;28;20036;-69
2024/01/10 04:20:47;;;;;;;9.38;5.32;;;;;;;-4.29;70.28;102871.34;5100347;28;20492;-69
2024/01/10 04:23:35;;;;;;;9.63;5.10;;;;;;;-4.19;69.96;102866.16;5101156;28;20547;-69
2024/01/10 04:26:23;;;;;;;9.93;5.20;;;;;;;-4.25;71.19;102855.16;5087562;28;20043;-67
2024/01/10 04:29:11;;;;;;;9.50;5.28;;;;;;;-4.39;69.92;102865.06;5109303;28;20527;-68
2024/01/10 04:31:59;;;;;;;12.15;6.22;;;;;;;-4.56;70.72;102852.22;5095347;28;20153;-68
2024/01/10 04:34:48;;;;;;;7.90;4.65;;;;;;;-4.61;71.03;102862.38;5099800;28;20391;-68
2024/01/10 04:37:36;;;;;;;9.50;5.20;;;;;;;-4.61;72.29;102857.06;5104422;28;20039;-69
2024/01/10 04:40:24;;;;;;;9.38;5.13;;;;;;;-4.68;72.33;102847.84;5120806;27;20044;-69
2024/01/10 04:43:11;;;;;;;9.60;5.25;;;;;;;-4.63;72.53;102851.00;5107136;28;20047;-67
2024/01/10 04:45:59;;;;;;;9.15;5.60;;;;;;;-4.49;71.96;102858.75;5091059;28;20047;-67
2024/01/10 04:48:47;;;;;;;10.52;5.20;;;;;;;-4.39;70.80;102854.41;5121193;28;20123;-68
2024/01/10 04:51:36;;;;;;;9.30;5.10;;;;;;;-4.35;70.23;102855.88;5092671;28;20070;-68
2024/01/10 04:54:24;;;;;;;9.45;5.50;;;;;;;-4.43;70.52;102852.94;5110071;28;20124;-66
2024/01/10 04:57:12;;;;;;;10.68;5.72;;;;;;;-4.46;72.08;102863.84;5105750;28;20040;-68
2024/01/10 05:00:00;;;;;;;9.95;5.47;;;;;;;-4.48;71.44;102865.78;5097363;27;20097;-67
2024/01/10 05:02:48;;;;;;;7.68;4.80;;;;;;;-4.48;70.74;102863.09;5120464;27;20200;-68
2024/01/10 05:05:38;;;;;;;9.15;5.32;;;;;;;-4.46;70.89;102863.84;5116489;27;20422;-68
2024/01/10 05:08:27;;;;;;;8.43;5.25;;;;;;;-4.42;71.01;102867.13;5099975;28;20096;-69
2024/01/10 05:11:15;;;;;;;9.02;4.93;;;;;;;-4.41;71.00;102866.16;5095642;28;20055;-69
2024/01/10 05:14:04;;;;;;;14.10;6.05;;;;;;;-4.41;71.50;102867.00;5080051;28;20395;-69
2024/01/10 05:16:53;;;;;;;8.88;5.05;;;;;;;-4.48;71.81;102864.94;5079581;28;20039;-69
2024/01/10 05:19:42;;;;;;;9.40;5.07;;;;;;;-4.46;72.38;102868.31;5085227;28;20077;-68
2024/01/10 05:22:30;;;;;;;8.75;5.13;;;;;;;-4.38;72.04;102866.75;5099885;28;20118;-67
2024/01/10 05:25:18;;;;;;;9.23;5.55;;;;;;;-4.37;71.32;102867.63;5099871;28;20177;-68
2024/01/10 05:28:06;;;;;;;8.82;5.20;;;;;;;-4.58;71.27;102862.13;5117858;27;20039;-68
2024/01/10 05:30:54;;;;;;;10.52;5.43;;;;;;;-4.61;72.32;102854.41;5083313;28;20069;-69
2024/01/10 05:33:42;;;;;;;10.52;5.20;;;;;;;-4.50;72.75;102851.72;5093720;28;20055;-68
2024/01/10 05:36:30;;;;;;;9.73;4.90;;;;;;;-4.47;72.21;102846.19;5066484;28;20423;-68
2024/01/10 05:39:20;;;;;;;9.15;5.07;;;;;;;-4.51;73.64;102845.56;5093051;27;20043;-67
2024/01/10 05:42:08;;;;;;;8.93;4.72;;;;;;;-4.67;73.11;102849.53;5115208;27;20465;-68
2024/01/10 05:44:56;;;;;;;8.98;5.07;;;;;;;-4.69;74.07;102846.13;5113148;28;20052;-68
2024/01/10 05:47:44;;;;;;;8.90;4.95;;;;;;;-4.63;74.74;102845.69;5098596;28;20040;-67
2024/01/10 05:50:32;;;;;;;10.63;5.53;;;;;;;-4.68;74.97;102846.03;5098424;28;20051;-69
2024/01/10 05:53:20;;;;;;;9.68;5.47;;;;;;;-4.68;74.70;102853.16;5094390;28;20058;-68
2024/01/10 05:56:09;;;;;;;9.88;5.47;;;;;;;-4.74;75.87;102844.69;5094070;28;20426;-69
2024/01/10 05:58:57;;;;;;;9.48;5.32;;;;;;;-4.85;75.55;102847.31;5092701;28;20154;-68
2024/01/10 06:01:45;;;;;;;9.57;5.40;;;;;;;-4.73;76.95;102845.53;5080096;28;20495;-69
2024/01/10 06:04:33;;;;;;;9.13;5.38;;;;;;;-4.68;76.52;102858.50;5093724;28;20042;-69
2024/01/10 06:07:21;;;;;;;11.15;5.95;;;;;;;-4.65;74.66;102859.09;5121492;28;20120;-69
2024/01/10 06:10:10;;;;;;;10.93;6.18;;;;;;;-4.68;75.55;102855.84;5113395;28;20043;-70
2024/01/10 06:12:58;;;;;;;10.23;5.80;;;;;;;-4.66;74.79;102861.88;5098777;28;20039;-68
2024/01/10 06:15:46;;;;;;;10.07;6.05;;;;;;;-4.63;74.48;102858.97;5113768;27;20050;-68
2024/01/10 06:18:34;;;;;;;10.15;5.68;;;;;;;-4.64;74.03;102849.28;5098274;28;20122;-68
2024/01/10 06:21:23;;;;;;;11.95;6.00;;;;;;;-4.65;75.25;102852.94;5113868;28;20039;-68
2024/01/10 06:24:11;;;;;;;13.75;6.28;;;;;;;-4.64;75.21;102846.63;5075586;28;20040;-72
2024/01/10 06:26:59;;;;;;;10.70;5.90;;;;;;;-4.68;75.72;102847.84;5092661;28;20039;-68
2024/01/10 06:29:47;;;;;;;9.82;5.47;;;;;;;-4.67;75.42;102847.72;5098880;28;20047;-68
2024/01/10 06:32:35;;;;;;;10.63;5.90;;;;;;;-4.73;75.18;102838.41;5115494;28;20127;-70
2024/01/10 06:35:23;;;;;;;13.27;6.18;;;;;;;-4.80;76.59;102839.84;5064762;28;20462;-68
2024/01/10 06:38:11;;;;;;;10.10;5.82;;;;;;;-4.75;75.39;102843.00;4379543;28;10000666;-72
2024/01/10 06:41:00;;;;;;;12.65;5.75;;;;;;;-4.79;76.86;102841.53;5061504;28;20044;-71
2024/01/10 06:43:48;;;;;;;10.10;5.63;;;;;;;-4.68;77.34;102839.88;5065145;28;20039;-69
2024/01/10 06:46:36;;;;;;;12.23;6.30;;;;;;;-4.57;74.99;102840.75;5089995;28;20044;-69
2024/01/10 06:49:24;;;;;;;11.50;6.20;;;;;;;-4.52;75.72;102843.06;5067654;28;20040;-67
2024/01/10 06:52:12;;;;;;;10.95;5.80;;;;;;;-4.52;75.35;102843.06;5090154;28;20354;-68
2024/01/10 06:55:00;;;;;;;12.30;6.35;;;;;;;-4.55;75.04;102849.44;5089419;28;20051;-69
2024/01/10 06:57:51;;;;;;;10.60;6.10;;;;;;;-4.64;76.37;102844.84;5091318;28;20051;-70
2024/01/10 07:00:39;;;;;;;11.15;6.10;;;;;;;-4.79;76.06;102857.47;5088997;28;20048;-66
2024/01/10 07:03:27;;;;;;;10.20;6.30;;;;;;;-4.81;76.21;102859.44;5087772;28;20629;-69
2024/01/10 07:06:15;;;;;;;12.77;6.60;;;;;;;-4.74;76.50;102847.34;5088730;28;20039;-68
2024/01/10 07:09:05;;;;;;;12.15;6.63;;;;;;;-4.72;77.18;102850.72;5093571;28;20043;-69
2024/01/10 07:11:53;;;;;;;11.10;6.32;;;;;;;-4.81;77.26;102848.78;5109712;28;20039;-68
2024/01/10 07:14:41;;;;;;;11.38;6.10;;;;;;;-4.78;77.95;102845.91;5093696;28;20040;-71
2024/01/10 07:17:29;;;;;;;12.88;6.45;;;;;;;-4.86;76.76;102856.25;5100059;28;20096;-70
2024/01/10 07:20:17;;;;;;;13.40;6.25;;;;;;;-4.86;77.03;102852.75;5071059;28;20137;-69
2024/01/10 07:23:06;;;;;;;12.02;5.90;;;;;;;-4.78;78.24;102867.16;5089877;28;20113;-68
2024/01/10 07:25:54;;;;;;;13.27;6.90;;;;;;;-4.68;77.64;102874.44;5073119;28;20492;-70
2024/01/10 07:28:42;;;;;;;10.48;6.03;;;;;;;-4.69;76.75;102870.91;5097358;28;20047;-70
2024/01/10 07:31:30;;;;;;;12.13;6.10;;;;;;;-4.73;77.47;102875.63;5087172;28;20739;-67
2024/01/10 07:34:18;;;;;;;14.43;6.93;;;;;;;-4.75;78.70;102880.22;5107118;28;20059;-68
2024/01/10 07:37:06;;;;;;;11.73;6.95;;;;;;;-4.73;79.04;102880.94;5083168;28;20134;-70
2024/01/10 07:39:56;;;;;;;10.15;6.35;;;;;;;-4.81;78.11;102878.03;5079417;28;20467;-70
2024/01/10 07:42:44;;;;;;;12.02;7.50;;;;;;;-4.93;78.66;102874.50;5107536;27;20047;-68
2024/01/10 07:45:33;;;;;;;11.55;6.90;;;;;;;-4.96;78.88;102865.88;5101316;28;20425;-68
2024/01/10 07:48:21;;;;;;;13.65;7.10;;;;;;;-5.05;80.43;102870.09;5115006;28;20072;-68
2024/01/10 07:51:10;;;;;;;15.68;7.10;;;;;;;-5.03;81.00;102857.50;5120776;27;20035;-69
2024/01/10 07:53:59;;;;;;;11.45;6.35;;;;;;;-4.99;80.61;102852.84;5120711;27;20176;-69
2024/01/10 07:56:47;;;;;;;13.65;6.43;;;;;;;-4.99;81.95;102843.03;5074342;28;20032;-69
2024/01/10 07:59:35;;;;;;;10.68;6.60;;;;;;;-4.99;79.77;102844.84;5101108;28;20487;-70
2024/01/10 08:02:24;;;;;;;15.15;7.85;;;;;;;-4.98;80.87;102849.19;5104530;28;20046;-67
2024/01/10 08:05:12;;;;;;;12.60;6.68;;;;;;;-4.99;80.89;102855.50;5109004;28;20552;-72
2024/01/10 08:08:01;;;;;;;15.60;6.82;;;;;;;-4.86;80.46;102861.56;5095704;28;20040;-69
2024/01/10 08:10:49;;;;;;;13.13;6.43;;;;;;;-4.80;78.72;102855.78;5100835;27;20054;-68
2024/01/10 08:13:37;;;;;;;13.23;7.10;;;;;;;-4.92;79.53;102856.72;5116896;28;20048;-68
2024/01/10 08:16:25;;;;;;;11.38;6.72;;;;;;;-4.92;79.88;102851.41;5086783;28;20475;-68
2024/01/10 08:19:13;;;;;;;13.20;7.05;;;;;;;-4.95;79.17;102852.50;5111321;28;20068;-71
2024/01/10 08:22:01;;;;;;;12.65;6.82;;;;;;;-4.88;78.94;102863.50;5081762;28;20114;-69
2024/01/10 08:24:49;;;;;;;13.90;7.22;;;;;;;-4.85;80.41;102863.28;5071188;28;20051;-69
2024/01/10 08:27:37;;;;;;;10.68;6.63;;;;;;;-4.68;79.70;102863.81;5094998;28;20096;-68
2024/01/10 08:30:27;;;;;;;12.23;6.75;;;;;;;-4.76;78.35;102861.75;5113118;28;20109;-69
2024/01/10 08:33:15;;;;;;;13.50;6.50;;;;;;;-4.78;78.24;102856.53;5100303;28;20118;-68
2024/01/10 08:36:04;;;;;;;13.38;7.60;;;;;;;-4.79;78.99;102857.47;5100890;28;20118;-68
2024/01/10 08:38:51;;;;;;;13.73;7.35;;;;;;;-4.82;79.17;102855.06;5116416;28;20051;-68
2024/01/10 08:41:44;;;;;;;13.43;7.30;;;;;;;-4.71;76.67;102854.25;5114664;28;20517;-68
2024/01/10 08:44:32;;;;;;;12.35;7.13;;;;;;;-4.76;77.48;102854.59;5095374;28;20036;-68
2024/01/10 08:47:20;;;;;;;12.88;7.10;;;;;;;-4.75;78.06;102845.66;5095878;28;20055;-68
2024/01/10 08:50:08;;;;;;;13.75;7.43;;;;;;;-4.64;75.81;102847.50;5108732;27;20063;-69
2024/01/10 08:52:57;;;;;;;13.82;7.55;;;;;;;-4.61;76.31;102847.25;5091069;28;20044;-67
2024/01/10 08:55:47;;;;;;;14.80;7.88;;;;;;;-4.54;76.88;102850.31;5086362;28;20051;-70
2024/01/10 08:58:35;;;;;;;13.60;7.35;;;;;;;-4.36;76.41;102843.53;5102524;28;20063;-67
2024/01/10 09:01:23;;;;;;;12.88;7.75;;;;;;;-4.33;73.57;102859.28;5101054;28;20088;-68
2024/01/10 09:04:11;;;;;;;14.60;7.85;;;;;;;-4.36;74.68;102859.50;5071248;28;20039;-67
2024/01/10 09:06:59;;;;;;;14.48;8.27;;;;;;;-4.35;74.41;102853.22;5116118;28;20202;-67
2024/01/10 09:09:47;;;;;;;13.80;7.90;;;;;;;-4.34;75.46;102854.06;5116512;27;20047;-69
2024/01/10 09:12:35;;;;;;;17.50;7.82;;;;;;;-4.37;75.25;102863.13;5128271;27;20043;-68
2024/01/10 09:15:24;;;;;;;13.63;8.13;;;;;;;-4.37;73.20;102863.13;5121200;28;20066;-67
2024/01/10 09:18:12;;;;;;;19.50;8.38;;;;;;;-4.20;75.18;102859.16;5116556;27;20095;-69
2024/01/10 09:21:00;;;;;;;15.38;8.30;;;;;;;-4.16;75.30;102865.06;5110072;28;20051;-67
2024/01/10 09:23:50;;;;;;;14.52;8.00;;;;;;;-4.09;75.18;102868.94;5103851;28;20040;-70
2024/01/10 09:26:38;;;;;;;14.45;8.20;;;;;;;-4.08;73.96;102868.00;5116263;28;20040;-68
2024/01/10 09:29:27;;;;;;;14.57;8.68;;;;;;;-4.04;75.32;102874.78;5123488;27;20043;-68
2024/01/10 09:32:15;;;;;;;14.95;8.52;;;;;;;-3.99;73.35;102877.91;5119103;27;20055;-72
2024/01/10 09:35:03;;;;;;;14.35;8.55;;;;;;;-3.97;73.33;102875.97;5089004;28;20101;-67
2024/01/10 09:37:53;;;;;;;15.30;9.40;;;;;;;-4.02;72.08;102877.28;5085863;28;20050;-67
2024/01/10 09:40:42;;;;;;;17.15;8.38;;;;;;;-4.07;72.38;102888.31;5081464;27;20480;-67
2024/01/10 09:43:33;;;;;;;15.68;9.02;;;;;;;-3.92;73.31;102887.13;5100770;28;20488;-69
2024/01/10 09:46:21;;;;;;;17.90;9.25;;;;;;;-3.79;72.69;102878.16;5099375;28;20424;-68
2024/01/10 09:49:09;;;;;;;15.70;9.48;;;;;;;-3.88;71.17;102882.38;5080393;27;20058;-67
2024/01/10 09:52:01;;;;;;;17.25;8.82;;;;;;;-3.84;72.52;102890.97;5114465;27;20039;-74
2024/01/10 09:54:53;;;;;;;15.93;9.00;;;;;;;-3.81;70.44;102888.06;5098435;28;20050;-68
2024/01/10 09:57:42;;;;;;;15.77;9.43;;;;;;;-3.76;69.53;102886.72;5105637;28;20044;-68
2024/01/10 10:00:30;;;;;;;16.52;9.32;;;;;;;-3.76;69.28;102885.88;5096276;28;20046;-68
2024/01/10 10:03:20;;;;;;;15.52;8.55;;;;;;;-3.72;69.61;102887.34;5045619;28;20543;-68
2024/01/10 10:06:08;;;;;;;14.85;9.18;;;;;;;-3.72;69.68;102888.19;5093786;28;20048;-68
2024/01/10 10:09:01;;;;;;;17.10;9.52;;;;;;;-3.72;68.71;102879.34;5092426;28;20498;-67
2024/01/10 10:11:54;;;;;;;18.35;9.85;;;;;;;-3.62;67.56;102868.78;5098014;28;20126;-68
2024/01/10 10:14:42;;;;;;;17.25;9.68;;;;;;;-3.67;66.20;102875.34;5113915;28;20035;-66
2024/01/10 10:17:30;;;;;;;16.33;9.57;;;;;;;-3.68;65.68;102881.66;5112818;28;20044;-67
2024/01/10 10:20:26;;;;;;;14.25;8.80;;;;;;;-3.68;66.67;102880.78;5113557;27;20062;-69
2024/01/10 10:23:14;;;;;;;18.15;10.27;;;;;;;-3.61;65.58;102887.31;5102480;27;20453;-69
2024/01/10 10:26:20;;;;;;;19.70;10.07;;;;;;;-3.58;66.67;102873.75;5084977;27;20047;-68
2024/01/10 10:29:09;;;;;;;17.02;9.50;;;;;;;-3.50;65.37;102868.63;5080687;27;20044;-68
2024/01/10 10:31:57;;;;;;;18.30;9.93;;;;;;;-3.48;65.84;102861.38;5079037;28;20134;-69
2024/01/10 10:34:46;;;;;;;16.35;9.88;;;;;;;-3.47;66.27;102863.06;5078937;28;20119;-69
2024/01/10 10:37:34;;;;;;;19.25;9.77;;;;;;;-3.36;66.69;102870.19;5072614;28;20050;-68
2024/01/10 10:40:22;;;;;;;19.70;10.55;;;;;;;-3.31;66.03;102869.81;5100512;27;20131;-68
2024/01/10 10:43:15;;;;;;;20.15;10.70;;;;;;;-3.40;65.60;102863.41;5096267;28;20071;-68
2024/01/10 10:46:08;;;;;;;18.67;10.85;;;;;;;-3.41;67.16;102855.56;5097973;28;20046;-67
2024/01/10 10:49:00;;;;;;;20.40;11.48;;;;;;;-3.36;66.08;102859.53;5095804;28;20039;-70
2024/01/10 10:51:49;;;;;;;20.48;10.75;;;;;;;-3.31;66.51;102856.47;5063050;28;20117;-67
2024/01/10 10:54:38;;;;;;;17.85;10.63;;;;;;;-3.34;65.24;102860.25;5087891;28;20315;-69
2024/01/10 10:57:27;;;;;;;18.33;10.88;;;;;;;-3.09;74.96;102856.38;5082980;28;20036;-67
2024/01/10 11:00:19;;;;;;;21.80;11.48;;;;;;;-3.09;65.74;102856.38;5075511;27;20050;-70
2024/01/10 11:03:11;;;;;;;20.27;11.90;;;;;;;-3.11;65.29;102858.34;5071209;28;20043;-68
2024/01/10 11:06:00;;;;;;;18.02;11.30;;;;;;;-3.13;64.99;102865.59;5073653;28;20043;-67
2024/01/10 11:08:55;;;;;;;21.40;12.07;;;;;;;-3.12;65.51;102851.31;5091935;28;20437;-68
2024/01/10 11:12:02;;;;;;;20.63;10.80;;;;;;;-3.10;65.76;102854.72;5103994;28;20039;-67
2024/01/10 11:15:02;;;;;;;20.50;10.95;;;;;;;-3.08;65.61;102843.91;5098655;28;20047;-66
2024/01/10 11:18:09;;;;;;;17.70;9.98;;;;;;;-3.00;66.07;102839.63;5098925;28;20052;-67
2024/01/10 11:21:15;;;;;;;19.10;11.52;;;;;;;-2.94;65.22;102838.25;5111740;28;20055;-67
2024/01/10 11:24:04;;;;;;;19.17;10.73;;;;;;;-2.91;65.08;102837.16;5096278;28;20154;-68
2024/01/10 11:27:13;;;;;;;19.55;11.18;;;;;;;-2.91;64.61;102829.16;5091793;28;20044;-67
2024/01/10 11:30:03;;;;;;;17.65;10.55;;;;;;;-2.90;65.26;102838.84;5077984;28;20126;-67
2024/01/10 11:32:51;;;;;;;17.83;10.48;;;;;;;-2.84;64.97;102838.31;5100364;28;20055;-67
2024/01/10 11:35:39;;;;;;;24.35;10.73;;;;;;;-2.80;64.89;102839.75;5100571;28;20122;-69
2024/01/10 11:38:28;;;;;;;19.50;11.43;;;;;;;-2.76;65.23;102841.19;5078967;28;20040;-69
2024/01/10 11:41:24;;;;;;;20.52;11.13;;;;;;;-2.73;64.09;102840.94;5112593;28;20046;-70
2024/01/10 11:44:12;;;;;;;17.48;10.43;;;;;;;-2.69;63.31;102836.19;5111931;28;20126;-69
2024/01/10 11:47:05;;;;;;;18.70;10.48;;;;;;;-2.68;63.47;102836.03;5104386;28;20069;-69
2024/01/10 11:49:58;;;;;;;20.90;11.38;;;;;;;-2.64;63.48;102839.31;5094168;28;20040;-68
2024/01/10 11:52:46;;;;;;;18.02;10.35;;;;;;;-2.57;63.29;102833.31;5090062;28;20040;-69
2024/01/10 11:55:52;;;;;;;19.55;10.85;;;;;;;-2.53;61.95;102835.72;5110151;28;20074;-68
2024/01/10 11:59:08;;;;;;;22.25;11.07;;;;;;;-2.47;62.39;102828.03;5096161;28;20483;-66
2024/01/10 12:01:57;;;;;;;21.20;11.25;;;;;;;-2.48;62.60;102831.66;5101372;28;20479;-68
2024/01/10 12:04:45;;;;;;;20.10;11.05;;;;;;;-2.42;62.42;102816.97;5082016;28;20136;-68
2024/01/10 12:07:36;;;;;;;19.75;11.10;;;;;;;-2.41;61.71;102816.81;5096390;28;20526;-68
2024/01/10 12:10:27;;;;;;;21.30;12.55;;;;;;;-2.43;60.99;102821.47;5091574;28;20415;-67
2024/01/10 12:13:15;;;;;;;22.25;11.90;;;;;;;-2.41;61.92;102819.47;5101930;28;20035;-67
2024/01/10 12:16:03;;;;;;;19.00;11.20;;;;;;;-2.39;61.44;102819.34;5110125;28;20082;-68
2024/01/10 12:18:51;;;;;;;21.38;10.75;;;;;;;-2.32;61.56;102812.50;5111694;28;20514;-68
2024/01/10 12:21:39;;;;;;;18.67;11.05;;;;;;;-2.25;60.50;102812.81;5113978;28;20046;-67
2024/01/10 12:24:31;;;;;;;21.95;10.60;;;;;;;-2.20;62.21;102821.28;5098862;28;20028;-66
2024/01/10 12:27:20;;;;;;;21.27;12.63;;;;;;;-2.08;64.53;102808.66;5074652;28;20386;-68
2024/01/10 12:30:09;;;;;;;23.42;12.88;;;;;;;-2.02;60.92;102813.44;5080790;28;20051;-68
2024/01/10 12:33:01;;;;;;;23.67;12.63;;;;;;;-2.07;60.69;102813.84;5075784;27;20097;-67
2024/01/10 12:36:10;;;;;;;22.30;12.00;;;;;;;-2.08;60.32;102798.81;5137715;27;20083;-67
2024/01/10 12:38:59;;;;;;;18.85;11.55;;;;;;;-2.06;60.21;102807.53;5120898;27;20188;-68
2024/01/10 12:41:47;;;;;;;20.27;11.73;;;;;;;-2.00;60.68;102806.16;5136059;27;20168;-68
2024/01/10 12:44:35;;;;;;;20.77;11.93;;;;;;;-1.96;60.91;102804.91;5106137;28;20128;-68
2024/01/10 12:47:26;;;;;;;20.90;11.57;;;;;;;-1.87;60.61;102806.75;5100542;28;20047;-68
2024/01/10 12:50:14;;;;;;;20.25;11.65;;;;;;;-1.82;60.14;102807.19;5101029;28;20388;-67
2024/01/10 12:53:03;;;;;;;19.23;11.20;;;;;;;-1.76;59.54;102805.78;5100435;28;20066;-68
2024/01/10 12:55:51;;;;;;;17.25;10.65;;;;;;;-1.75;59.15;102800.31;5080743;28;20052;-67
2024/01/10 12:58:39;;;;;;;16.88;9.20;;;;;;;-1.68;59.16;102805.09;5079191;28;20040;-67
2024/01/10 13:01:27;;;;;;;20.00;11.45;;;;;;;-1.66;59.77;102806.66;5081934;28;20048;-67